This is the latest recevied weather packets stored in our database for station/object KV9E. If no packets are shown the sender has not sent any weather packets the latest 10 day(s).
| Time | Temp. | Humidity | Pressure | Rain* | Wind** | Luminosity | Snow |
|---|---|---|---|---|---|---|---|
| 1778366060 | 20.56° C | 64% | 1011 hPa | 0 mm | - | 91 W/m² | - |
| 1778365758 | 20° C | 66% | 1011 hPa | 0 mm | - | 200 W/m² | - |
| 1778365452 | 20.56° C | 67% | 1011 hPa | 0 mm | - | 47 W/m² | - |
| 1778365148 | 21.67° C | 62% | 1010.7 hPa | 0 mm | - | 77 W/m² | - |
| 1778364845 | 21.67° C | 61% | 1010.8 hPa | 0 mm | - | 266 W/m² | - |
| 1778364541 | 20° C | 68% | 1010.8 hPa | 0 mm | - | 283 W/m² | - |
| 1778364237 | 20° C | 66% | 1010.9 hPa | 0 mm | - | 62 W/m² | - |
| 1778363932 | 20° C | 67% | 1010.7 hPa | 0 mm | - | 41 W/m² | - |
| 1778363629 | 21.11° C | 64% | 1010.7 hPa | 0 mm | - | 43 W/m² | - |
| 1778363327 | 21.11° C | 65% | 1010.6 hPa | 0 mm | - | 302 W/m² | - |
| 1778363024 | 21.11° C | 62% | 1010.9 hPa | 0 mm | - | 79 W/m² | - |
| 1778362721 | 22.78° C | 59% | 1010.7 hPa | 0 mm | - | 360 W/m² | - |
| 1778362416 | 22.78° C | 59% | 1010.8 hPa | 0 mm | - | 391 W/m² | - |
| 1778362114 | 21.67° C | 57% | 1010.7 hPa | 0 mm | - | 406 W/m² | - |
| 1778361811 | 22.22° C | 56% | 1010.7 hPa | 0 mm | - | 128 W/m² | - |
| 1778361507 | 22.22° C | 57% | 1010.5 hPa | 0 mm | - | 457 W/m² | - |
| 1778361203 | 22.22° C | 56% | 1010.6 hPa | 0 mm | - | 460 W/m² | - |
| 1778360900 | 21.67° C | 63% | 1010.5 hPa | 0 mm | - | 491 W/m² | - |
| 1778360598 | 20° C | 65% | 1010.6 hPa | 0 mm | - | 521 W/m² | - |
| 1778360297 | 19.44° C | 69% | 1010.3 hPa | 0 mm | - | 141 W/m² | - |
| 1778359992 | 20° C | 67% | 1010.7 hPa | 0 mm | - | 106 W/m² | - |
| 1778359688 | 21.11° C | 63% | 1010.3 hPa | 0 mm | - | 75 W/m² | - |
| 1778359384 | 21.67° C | 63% | 1010.5 hPa | 0 mm | - | 84 W/m² | - |
| 1778359080 | 21.11° C | 65% | 1010.4 hPa | 0 mm | - | 147 W/m² | - |
| 1778358773 | 20° C | 69% | 1010.5 hPa | 0 mm | - | 336 W/m² | - |
* Rain latest hour (hover to see other rain measurements)
** Current wind speed in m/s (hover to see current wind gust speed)